sensor_id;sensor_type;location;lat;lon;timestamp;pressure;altitude;pressure_sealevel;temperature
44429;BMP180;30134;47.866;-4.222;2023-04-24T00:00:33;100832.00;;;21.30
44429;BMP180;30134;47.866;-4.222;2023-04-24T00:02:59;100826.00;;;21.40
44429;BMP180;30134;47.866;-4.222;2023-04-24T00:05:25;100832.00;;;21.30
44429;BMP180;30134;47.866;-4.222;2023-04-24T00:07:51;100830.00;;;21.30
44429;BMP180;30134;47.866;-4.222;2023-04-24T00:10:21;100829.00;;;21.30
44429;BMP180;30134;47.866;-4.222;2023-04-24T00:12:47;100832.00;;;21.30
44429;BMP180;30134;47.866;-4.222;2023-04-24T00:15:13;100835.00;;;21.40
44429;BMP180;30134;47.866;-4.222;2023-04-24T00:17:39;100837.00;;;21.40
44429;BMP180;30134;47.866;-4.222;2023-04-24T00:20:06;100835.00;;;21.30
44429;BMP180;30134;47.866;-4.222;2023-04-24T00:22:33;100843.00;;;21.40
44429;BMP180;30134;47.866;-4.222;2023-04-24T00:24:59;100845.00;;;21.40
44429;BMP180;30134;47.866;-4.222;2023-04-24T00:27:25;100843.00;;;21.40
44429;BMP180;30134;47.866;-4.222;2023-04-24T00:29:51;100844.00;;;21.30
44429;BMP180;30134;47.866;-4.222;2023-04-24T00:32:17;100847.00;;;21.30
44429;BMP180;30134;47.866;-4.222;2023-04-24T00:34:43;100847.00;;;21.30
44429;BMP180;30134;47.866;-4.222;2023-04-24T00:37:09;100844.00;;;21.30
44429;BMP180;30134;47.866;-4.222;2023-04-24T00:39:35;100849.00;;;21.30
44429;BMP180;30134;47.866;-4.222;2023-04-24T00:42:01;100847.00;;;21.30
44429;BMP180;30134;47.866;-4.222;2023-04-24T00:44:28;100849.00;;;21.30
44429;BMP180;30134;47.866;-4.222;2023-04-24T00:46:55;100850.00;;;21.30
44429;BMP180;30134;47.866;-4.222;2023-04-24T00:49:22;100852.00;;;21.30
44429;BMP180;30134;47.866;-4.222;2023-04-24T00:51:48;100859.00;;;21.30
44429;BMP180;30134;47.866;-4.222;2023-04-24T00:54:15;100862.00;;;21.30
44429;BMP180;30134;47.866;-4.222;2023-04-24T00:56:42;100855.00;;;21.30
44429;BMP180;30134;47.866;-4.222;2023-04-24T00:59:09;100867.00;;;21.30
44429;BMP180;30134;47.866;-4.222;2023-04-24T01:01:36;100870.00;;;21.30
44429;BMP180;30134;47.866;-4.222;2023-04-24T01:04:02;100873.00;;;21.30
44429;BMP180;30134;47.866;-4.222;2023-04-24T01:06:29;100865.00;;;21.30
44429;BMP180;30134;47.866;-4.222;2023-04-24T01:08:58;100861.00;;;21.30
44429;BMP180;30134;47.866;-4.222;2023-04-24T01:11:25;100870.00;;;21.30
44429;BMP180;30134;47.866;-4.222;2023-04-24T01:16:26;100875.00;;;21.30
44429;BMP180;30134;47.866;-4.222;2023-04-24T01:18:52;100875.00;;;21.30
44429;BMP180;30134;47.866;-4.222;2023-04-24T01:21:18;100875.00;;;21.30
44429;BMP180;30134;47.866;-4.222;2023-04-24T01:23:45;100870.00;;;21.30
44429;BMP180;30134;47.866;-4.222;2023-04-24T01:26:14;100878.00;;;21.30
44429;BMP180;30134;47.866;-4.222;2023-04-24T01:28:40;100878.00;;;21.30
44429;BMP180;30134;47.866;-4.222;2023-04-24T01:31:06;100873.00;;;21.30
44429;BMP180;30134;47.866;-4.222;2023-04-24T01:33:36;100870.00;;;21.20
44429;BMP180;30134;47.866;-4.222;2023-04-24T01:36:02;100867.00;;;21.30
44429;BMP180;30134;47.866;-4.222;2023-04-24T01:38:29;100869.00;;;21.30
44429;BMP180;30134;47.866;-4.222;2023-04-24T01:40:55;100867.00;;;21.20
44429;BMP180;30134;47.866;-4.222;2023-04-24T01:43:21;100873.00;;;21.30
44429;BMP180;30134;47.866;-4.222;2023-04-24T01:45:47;100870.00;;;21.20
44429;BMP180;30134;47.866;-4.222;2023-04-24T01:48:13;100869.00;;;21.20
44429;BMP180;30134;47.866;-4.222;2023-04-24T01:50:40;100869.00;;;21.30
44429;BMP180;30134;47.866;-4.222;2023-04-24T01:53:06;100875.00;;;21.20
44429;BMP180;30134;47.866;-4.222;2023-04-24T01:55:32;100873.00;;;21.20
44429;BMP180;30134;47.866;-4.222;2023-04-24T01:58:00;100864.00;;;21.20
44429;BMP180;30134;47.866;-4.222;2023-04-24T02:00:27;100871.00;;;21.20
44429;BMP180;30134;47.866;-4.222;2023-04-24T02:02:53;100868.00;;;21.20
44429;BMP180;30134;47.866;-4.222;2023-04-24T02:05:19;100873.00;;;21.20
44429;BMP180;30134;47.866;-4.222;2023-04-24T02:07:45;100862.00;;;21.30
44429;BMP180;30134;47.866;-4.222;2023-04-24T02:10:11;100866.00;;;21.20
44429;BMP180;30134;47.866;-4.222;2023-04-24T02:12:38;100872.00;;;21.20
44429;BMP180;30134;47.866;-4.222;2023-04-24T02:15:05;100870.00;;;21.20
44429;BMP180;30134;47.866;-4.222;2023-04-24T02:17:31;100865.00;;;21.20
44429;BMP180;30134;47.866;-4.222;2023-04-24T02:19:57;100862.00;;;21.20
44429;BMP180;30134;47.866;-4.222;2023-04-24T02:22:23;100867.00;;;21.20
44429;BMP180;30134;47.866;-4.222;2023-04-24T02:24:49;100864.00;;;21.20
44429;BMP180;30134;47.866;-4.222;2023-04-24T02:27:15;100857.00;;;21.20
44429;BMP180;30134;47.866;-4.222;2023-04-24T02:29:41;100860.00;;;21.20
44429;BMP180;30134;47.866;-4.222;2023-04-24T02:32:07;100866.00;;;21.20
44429;BMP180;30134;47.866;-4.222;2023-04-24T02:34:37;100865.00;;;21.20
44429;BMP180;30134;47.866;-4.222;2023-04-24T02:37:03;100870.00;;;21.20
44429;BMP180;30134;47.866;-4.222;2023-04-24T02:39:29;100859.00;;;21.20
44429;BMP180;30134;47.866;-4.222;2023-04-24T02:41:55;100861.00;;;21.20
44429;BMP180;30134;47.866;-4.222;2023-04-24T02:44:21;100861.00;;;21.20
44429;BMP180;30134;47.866;-4.222;2023-04-24T02:46:48;100870.00;;;21.20
44429;BMP180;30134;47.866;-4.222;2023-04-24T02:49:17;100860.00;;;21.20
44429;BMP180;30134;47.866;-4.222;2023-04-24T02:51:43;100859.00;;;21.20
44429;BMP180;30134;47.866;-4.222;2023-04-24T02:54:09;100853.00;;;21.20
44429;BMP180;30134;47.866;-4.222;2023-04-24T02:56:38;100857.00;;;21.10
44429;BMP180;30134;47.866;-4.222;2023-04-24T02:59:04;100860.00;;;21.20
44429;BMP180;30134;47.866;-4.222;2023-04-24T03:01:30;100854.00;;;21.10
44429;BMP180;30134;47.866;-4.222;2023-04-24T03:03:56;100854.00;;;21.20
44429;BMP180;30134;47.866;-4.222;2023-04-24T03:06:22;100857.00;;;21.10
44429;BMP180;30134;47.866;-4.222;2023-04-24T03:08:48;100865.00;;;21.20
44429;BMP180;30134;47.866;-4.222;2023-04-24T03:11:14;100866.00;;;21.20
44429;BMP180;30134;47.866;-4.222;2023-04-24T03:13:40;100866.00;;;21.20
44429;BMP180;30134;47.866;-4.222;2023-04-24T03:16:06;100861.00;;;21.20
44429;BMP180;30134;47.866;-4.222;2023-04-24T03:18:32;100871.00;;;21.20
44429;BMP180;30134;47.866;-4.222;2023-04-24T03:20:58;100871.00;;;21.20
44429;BMP180;30134;47.866;-4.222;2023-04-24T03:23:25;100873.00;;;21.20
44429;BMP180;30134;47.866;-4.222;2023-04-24T03:25:51;100869.00;;;21.20
44429;BMP180;30134;47.866;-4.222;2023-04-24T03:28:17;100879.00;;;21.20
44429;BMP180;30134;47.866;-4.222;2023-04-24T03:30:43;100870.00;;;21.20
44429;BMP180;30134;47.866;-4.222;2023-04-24T03:33:09;100877.00;;;21.10
44429;BMP180;30134;47.866;-4.222;2023-04-24T03:35:35;100869.00;;;21.10
44429;BMP180;30134;47.866;-4.222;2023-04-24T03:38:01;100876.00;;;21.10
44429;BMP180;30134;47.866;-4.222;2023-04-24T03:40:30;100872.00;;;21.10
44429;BMP180;30134;47.866;-4.222;2023-04-24T03:42:56;100877.00;;;21.20
44429;BMP180;30134;47.866;-4.222;2023-04-24T03:45:22;100879.00;;;21.10
44429;BMP180;30134;47.866;-4.222;2023-04-24T03:47:48;100883.00;;;21.10
44429;BMP180;30134;47.866;-4.222;2023-04-24T03:50:14;100884.00;;;21.10
44429;BMP180;30134;47.866;-4.222;2023-04-24T03:52:40;100885.00;;;21.10
44429;BMP180;30134;47.866;-4.222;2023-04-24T03:55:07;100887.00;;;21.10
44429;BMP180;30134;47.866;-4.222;2023-04-24T03:57:33;100886.00;;;21.10
44429;BMP180;30134;47.866;-4.222;2023-04-24T03:59:59;100884.00;;;21.10
44429;BMP180;30134;47.866;-4.222;2023-04-24T04:02:25;100881.00;;;21.10
44429;BMP180;30134;47.866;-4.222;2023-04-24T04:04:51;100886.00;;;21.10
44429;BMP180;30134;47.866;-4.222;2023-04-24T04:07:17;100889.00;;;21.10
44429;BMP180;30134;47.866;-4.222;2023-04-24T04:09:43;100883.00;;;21.10
44429;BMP180;30134;47.866;-4.222;2023-04-24T04:12:09;100886.00;;;21.10
44429;BMP180;30134;47.866;-4.222;2023-04-24T04:14:35;100888.00;;;21.10
44429;BMP180;30134;47.866;-4.222;2023-04-24T04:17:01;100888.00;;;21.10
44429;BMP180;30134;47.866;-4.222;2023-04-24T04:19:27;100889.00;;;21.00
44429;BMP180;30134;47.866;-4.222;2023-04-24T04:21:54;100894.00;;;21.10
44429;BMP180;30134;47.866;-4.222;2023-04-24T04:24:22;100888.00;;;21.10
44429;BMP180;30134;47.866;-4.222;2023-04-24T04:26:48;100894.00;;;21.00
44429;BMP180;30134;47.866;-4.222;2023-04-24T04:29:17;100888.00;;;21.00
44429;BMP180;30134;47.866;-4.222;2023-04-24T04:31:46;100899.00;;;21.00
44429;BMP180;30134;47.866;-4.222;2023-04-24T04:34:12;100902.00;;;21.10
44429;BMP180;30134;47.866;-4.222;2023-04-24T04:36:39;100895.00;;;21.00
44429;BMP180;30134;47.866;-4.222;2023-04-24T04:39:06;100904.00;;;21.10
44429;BMP180;30134;47.866;-4.222;2023-04-24T04:41:32;100899.00;;;21.00
44429;BMP180;30134;47.866;-4.222;2023-04-24T04:44:01;100899.00;;;21.00
44429;BMP180;30134;47.866;-4.222;2023-04-24T04:46:31;100906.00;;;21.00
44429;BMP180;30134;47.866;-4.222;2023-04-24T04:49:02;100902.00;;;21.00
44429;BMP180;30134;47.866;-4.222;2023-04-24T04:51:29;100903.00;;;21.00
44429;BMP180;30134;47.866;-4.222;2023-04-24T04:53:55;100897.00;;;21.00
44429;BMP180;30134;47.866;-4.222;2023-04-24T04:56:21;100894.00;;;21.00
44429;BMP180;30134;47.866;-4.222;2023-04-24T04:58:48;100894.00;;;21.00
44429;BMP180;30134;47.866;-4.222;2023-04-24T05:01:14;100893.00;;;21.00
44429;BMP180;30134;47.866;-4.222;2023-04-24T05:03:40;100896.00;;;21.00
44429;BMP180;30134;47.866;-4.222;2023-04-24T05:06:09;100895.00;;;21.00
44429;BMP180;30134;47.866;-4.222;2023-04-24T05:08:35;100897.00;;;21.00
44429;BMP180;30134;47.866;-4.222;2023-04-24T05:11:01;100895.00;;;21.00
44429;BMP180;30134;47.866;-4.222;2023-04-24T05:13:34;100895.00;;;21.00
44429;BMP180;30134;47.866;-4.222;2023-04-24T05:16:00;100892.00;;;21.00
44429;BMP180;30134;47.866;-4.222;2023-04-24T05:18:26;100895.00;;;21.00
44429;BMP180;30134;47.866;-4.222;2023-04-24T05:20:52;100890.00;;;21.00
44429;BMP180;30134;47.866;-4.222;2023-04-24T05:23:18;100886.00;;;21.00
44429;BMP180;30134;47.866;-4.222;2023-04-24T05:25:45;100894.00;;;21.00
44429;BMP180;30134;47.866;-4.222;2023-04-24T05:28:11;100894.00;;;21.00
44429;BMP180;30134;47.866;-4.222;2023-04-24T05:30:37;100895.00;;;20.90
44429;BMP180;30134;47.866;-4.222;2023-04-24T05:33:03;100892.00;;;21.00
44429;BMP180;30134;47.866;-4.222;2023-04-24T05:35:29;100897.00;;;21.00
44429;BMP180;30134;47.866;-4.222;2023-04-24T05:37:55;100894.00;;;21.00
44429;BMP180;30134;47.866;-4.222;2023-04-24T05:40:22;100902.00;;;21.00
44429;BMP180;30134;47.866;-4.222;2023-04-24T05:42:48;100903.00;;;21.00
44429;BMP180;30134;47.866;-4.222;2023-04-24T05:45:14;100910.00;;;21.00
44429;BMP180;30134;47.866;-4.222;2023-04-24T05:47:43;100904.00;;;21.00
44429;BMP180;30134;47.866;-4.222;2023-04-24T05:50:10;100910.00;;;20.90
44429;BMP180;30134;47.866;-4.222;2023-04-24T05:52:37;100910.00;;;21.00
44429;BMP180;30134;47.866;-4.222;2023-04-24T05:55:03;100912.00;;;21.00
44429;BMP180;30134;47.866;-4.222;2023-04-24T05:57:29;100915.00;;;21.00
44429;BMP180;30134;47.866;-4.222;2023-04-24T05:59:56;100920.00;;;20.90
44429;BMP180;30134;47.866;-4.222;2023-04-24T06:02:22;100923.00;;;20.90
44429;BMP180;30134;47.866;-4.222;2023-04-24T06:04:48;100915.00;;;20.90
44429;BMP180;30134;47.866;-4.222;2023-04-24T06:07:14;100912.00;;;21.00
44429;BMP180;30134;47.866;-4.222;2023-04-24T06:09:40;100919.00;;;20.90
44429;BMP180;30134;47.866;-4.222;2023-04-24T06:12:06;100925.00;;;20.90
44429;BMP180;30134;47.866;-4.222;2023-04-24T06:14:34;100919.00;;;20.90
44429;BMP180;30134;47.866;-4.222;2023-04-24T06:17:00;100923.00;;;20.90
44429;BMP180;30134;47.866;-4.222;2023-04-24T06:19:26;100924.00;;;20.90
44429;BMP180;30134;47.866;-4.222;2023-04-24T06:21:52;100923.00;;;20.90
44429;BMP180;30134;47.866;-4.222;2023-04-24T06:24:18;100917.00;;;20.90
44429;BMP180;30134;47.866;-4.222;2023-04-24T06:26:44;100923.00;;;20.90
44429;BMP180;30134;47.866;-4.222;2023-04-24T06:29:10;100931.00;;;20.90
44429;BMP180;30134;47.866;-4.222;2023-04-24T06:31:36;100937.00;;;20.90
44429;BMP180;30134;47.866;-4.222;2023-04-24T06:34:03;100935.00;;;20.90
44429;BMP180;30134;47.866;-4.222;2023-04-24T06:36:30;100943.00;;;20.90
44429;BMP180;30134;47.866;-4.222;2023-04-24T06:38:57;100939.00;;;21.00
44429;BMP180;30134;47.866;-4.222;2023-04-24T06:41:23;100943.00;;;21.00
44429;BMP180;30134;47.866;-4.222;2023-04-24T06:43:49;100943.00;;;20.90
44429;BMP180;30134;47.866;-4.222;2023-04-24T06:46:15;100950.00;;;20.90
44429;BMP180;30134;47.866;-4.222;2023-04-24T06:48:41;100953.00;;;21.00
44429;BMP180;30134;47.866;-4.222;2023-04-24T06:51:07;100953.00;;;20.90
44429;BMP180;30134;47.866;-4.222;2023-04-24T06:53:33;100954.00;;;20.90
44429;BMP180;30134;47.866;-4.222;2023-04-24T06:55:59;100958.00;;;20.90
44429;BMP180;30134;47.866;-4.222;2023-04-24T06:58:26;100949.00;;;21.00
44429;BMP180;30134;47.866;-4.222;2023-04-24T07:00:52;100944.00;;;20.90
44429;BMP180;30134;47.866;-4.222;2023-04-24T07:03:18;100950.00;;;20.90
44429;BMP180;30134;47.866;-4.222;2023-04-24T07:05:46;100952.00;;;20.90
44429;BMP180;30134;47.866;-4.222;2023-04-24T07:08:13;100948.00;;;20.90
44429;BMP180;30134;47.866;-4.222;2023-04-24T07:10:42;100944.00;;;20.90
44429;BMP180;30134;47.866;-4.222;2023-04-24T07:13:08;100941.00;;;20.90
44429;BMP180;30134;47.866;-4.222;2023-04-24T07:15:34;100944.00;;;20.90
44429;BMP180;30134;47.866;-4.222;2023-04-24T07:18:01;100946.00;;;20.90
44429;BMP180;30134;47.866;-4.222;2023-04-24T07:20:26;100944.00;;;20.90
44429;BMP180;30134;47.866;-4.222;2023-04-24T07:22:52;100944.00;;;20.90
44429;BMP180;30134;47.866;-4.222;2023-04-24T07:25:20;100947.00;;;20.90
44429;BMP180;30134;47.866;-4.222;2023-04-24T07:27:51;100952.00;;;20.90
44429;BMP180;30134;47.866;-4.222;2023-04-24T07:30:18;100951.00;;;20.90
44429;BMP180;30134;47.866;-4.222;2023-04-24T07:32:44;100954.00;;;20.90
44429;BMP180;30134;47.866;-4.222;2023-04-24T07:35:10;100948.00;;;20.90
44429;BMP180;30134;47.866;-4.222;2023-04-24T07:37:36;100958.00;;;20.90
44429;BMP180;30134;47.866;-4.222;2023-04-24T07:40:02;100952.00;;;20.90
44429;BMP180;30134;47.866;-4.222;2023-04-24T07:42:29;100951.00;;;21.00
44429;BMP180;30134;47.866;-4.222;2023-04-24T07:44:56;100949.00;;;21.00
44429;BMP180;30134;47.866;-4.222;2023-04-24T07:47:22;100957.00;;;21.00
44429;BMP180;30134;47.866;-4.222;2023-04-24T07:49:48;100958.00;;;21.00
44429;BMP180;30134;47.866;-4.222;2023-04-24T07:52:14;100963.00;;;21.00
44429;BMP180;30134;47.866;-4.222;2023-04-24T07:54:40;100964.00;;;21.00
44429;BMP180;30134;47.866;-4.222;2023-04-24T07:57:06;100958.00;;;21.00
44429;BMP180;30134;47.866;-4.222;2023-04-24T07:59:34;100957.00;;;21.00
44429;BMP180;30134;47.866;-4.222;2023-04-24T08:02:00;100966.00;;;21.00
44429;BMP180;30134;47.866;-4.222;2023-04-24T08:04:27;100962.00;;;21.20
44429;BMP180;30134;47.866;-4.222;2023-04-24T08:06:53;100965.00;;;21.30
44429;BMP180;30134;47.866;-4.222;2023-04-24T08:09:19;100971.00;;;21.40
44429;BMP180;30134;47.866;-4.222;2023-04-24T08:11:45;100970.00;;;21.60
44429;BMP180;30134;47.866;-4.222;2023-04-24T08:14:11;100972.00;;;21.60
44429;BMP180;30134;47.866;-4.222;2023-04-24T08:16:39;100963.00;;;21.60
44429;BMP180;30134;47.866;-4.222;2023-04-24T08:19:05;100961.00;;;21.70
44429;BMP180;30134;47.866;-4.222;2023-04-24T08:21:31;100975.00;;;21.60
44429;BMP180;30134;47.866;-4.222;2023-04-24T08:23:57;100967.00;;;21.60
44429;BMP180;30134;47.866;-4.222;2023-04-24T08:26:23;100971.00;;;21.70
44429;BMP180;30134;47.866;-4.222;2023-04-24T08:28:50;100979.00;;;21.70
44429;BMP180;30134;47.866;-4.222;2023-04-24T08:31:16;100986.00;;;21.80
44429;BMP180;30134;47.866;-4.222;2023-04-24T08:33:42;100986.00;;;21.80
44429;BMP180;30134;47.866;-4.222;2023-04-24T08:36:10;100991.00;;;21.90
44429;BMP180;30134;47.866;-4.222;2023-04-24T08:38:51;100987.00;;;21.90
44429;BMP180;30134;47.866;-4.222;2023-04-24T08:41:24;100987.00;;;21.90
44429;BMP180;30134;47.866;-4.222;2023-04-24T08:43:52;100994.00;;;21.90
44429;BMP180;30134;47.866;-4.222;2023-04-24T08:46:19;100998.00;;;21.90
44429;BMP180;30134;47.866;-4.222;2023-04-24T08:48:46;101003.00;;;21.90
44429;BMP180;30134;47.866;-4.222;2023-04-24T08:51:12;101006.00;;;22.00
44429;BMP180;30134;47.866;-4.222;2023-04-24T08:53:39;101017.00;;;22.00
44429;BMP180;30134;47.866;-4.222;2023-04-24T08:56:06;101016.00;;;22.00
44429;BMP180;30134;47.866;-4.222;2023-04-24T08:58:33;101015.00;;;22.00
44429;BMP180;30134;47.866;-4.222;2023-04-24T09:01:00;101013.00;;;22.00
44429;BMP180;30134;47.866;-4.222;2023-04-24T09:03:28;101010.00;;;22.00
44429;BMP180;30134;47.866;-4.222;2023-04-24T09:05:55;101004.00;;;22.10
44429;BMP180;30134;47.866;-4.222;2023-04-24T09:08:25;101010.00;;;22.00
44429;BMP180;30134;47.866;-4.222;2023-04-24T09:10:52;101009.00;;;22.10
44429;BMP180;30134;47.866;-4.222;2023-04-24T09:13:22;101009.00;;;22.10
44429;BMP180;30134;47.866;-4.222;2023-04-24T09:15:48;101007.00;;;22.10
44429;BMP180;30134;47.866;-4.222;2023-04-24T09:18:15;100996.00;;;22.20
44429;BMP180;30134;47.866;-4.222;2023-04-24T09:21:03;101014.00;;;22.20
44429;BMP180;30134;47.866;-4.222;2023-04-24T09:23:31;101004.00;;;22.20
44429;BMP180;30134;47.866;-4.222;2023-04-24T09:25:59;101009.00;;;22.20
44429;BMP180;30134;47.866;-4.222;2023-04-24T09:28:40;101012.00;;;22.20
44429;BMP180;30134;47.866;-4.222;2023-04-24T09:31:13;101010.00;;;22.20
44429;BMP180;30134;47.866;-4.222;2023-04-24T09:34:01;101006.00;;;22.20
44429;BMP180;30134;47.866;-4.222;2023-04-24T09:36:41;101011.00;;;22.30
44429;BMP180;30134;47.866;-4.222;2023-04-24T09:39:12;101011.00;;;22.30
44429;BMP180;30134;47.866;-4.222;2023-04-24T09:41:49;101001.00;;;22.30
44429;BMP180;30134;47.866;-4.222;2023-04-24T09:44:22;101004.00;;;22.30
44429;BMP180;30134;47.866;-4.222;2023-04-24T09:46:53;100996.00;;;22.40
44429;BMP180;30134;47.866;-4.222;2023-04-24T09:49:29;101005.00;;;22.40
44429;BMP180;30134;47.866;-4.222;2023-04-24T09:52:07;101012.00;;;22.40
44429;BMP180;30134;47.866;-4.222;2023-04-24T09:54:34;101008.00;;;22.40
44429;BMP180;30134;47.866;-4.222;2023-04-24T09:57:02;101004.00;;;22.50
44429;BMP180;30134;47.866;-4.222;2023-04-24T09:59:29;101014.00;;;22.40
44429;BMP180;30134;47.866;-4.222;2023-04-24T10:01:56;101007.00;;;22.40
44429;BMP180;30134;47.866;-4.222;2023-04-24T10:04:26;101003.00;;;22.40
44429;BMP180;30134;47.866;-4.222;2023-04-24T10:06:55;101014.00;;;22.40
44429;BMP180;30134;47.866;-4.222;2023-04-24T10:09:25;101005.00;;;22.40
44429;BMP180;30134;47.866;-4.222;2023-04-24T10:11:53;101002.00;;;22.50
44429;BMP180;30134;47.866;-4.222;2023-04-24T10:14:23;101009.00;;;22.40
44429;BMP180;30134;47.866;-4.222;2023-04-24T10:16:53;101016.00;;;22.50
44429;BMP180;30134;47.866;-4.222;2023-04-24T10:19:20;101021.00;;;22.50
44429;BMP180;30134;47.866;-4.222;2023-04-24T10:21:47;101022.00;;;22.50
44429;BMP180;30134;47.866;-4.222;2023-04-24T10:24:18;101017.00;;;22.50
44429;BMP180;30134;47.866;-4.222;2023-04-24T10:26:46;101019.00;;;22.50
44429;BMP180;30134;47.866;-4.222;2023-04-24T10:29:18;101021.00;;;22.50
44429;BMP180;30134;47.866;-4.222;2023-04-24T10:31:44;101021.00;;;22.50
44429;BMP180;30134;47.866;-4.222;2023-04-24T10:34:11;101019.00;;;22.50
44429;BMP180;30134;47.866;-4.222;2023-04-24T10:36:50;101019.00;;;22.50
44429;BMP180;30134;47.866;-4.222;2023-04-24T10:39:17;101020.00;;;22.50
44429;BMP180;30134;47.866;-4.222;2023-04-24T10:41:44;101026.00;;;22.50
44429;BMP180;30134;47.866;-4.222;2023-04-24T10:44:16;101017.00;;;22.50
44429;BMP180;30134;47.866;-4.222;2023-04-24T10:46:46;101017.00;;;22.60
44429;BMP180;30134;47.866;-4.222;2023-04-24T10:49:29;101028.00;;;22.60
44429;BMP180;30134;47.866;-4.222;2023-04-24T10:52:02;101031.00;;;22.60
44429;BMP180;30134;47.866;-4.222;2023-04-24T10:54:47;101030.00;;;22.60
44429;BMP180;30134;47.866;-4.222;2023-04-24T10:59:46;101032.00;;;22.60
44429;BMP180;30134;47.866;-4.222;2023-04-24T11:02:17;101040.00;;;22.60
44429;BMP180;30134;47.866;-4.222;2023-04-24T11:04:44;101040.00;;;22.60
44429;BMP180;30134;47.866;-4.222;2023-04-24T11:07:13;101035.00;;;22.60
44429;BMP180;30134;47.866;-4.222;2023-04-24T11:09:39;101038.00;;;22.60
44429;BMP180;30134;47.866;-4.222;2023-04-24T11:12:10;101037.00;;;22.60
44429;BMP180;30134;47.866;-4.222;2023-04-24T11:17:36;101039.00;;;22.70
44429;BMP180;30134;47.866;-4.222;2023-04-24T11:20:17;101046.00;;;22.60
44429;BMP180;30134;47.866;-4.222;2023-04-24T11:22:44;101043.00;;;22.70
44429;BMP180;30134;47.866;-4.222;2023-04-24T11:25:10;101047.00;;;22.70
44429;BMP180;30134;47.866;-4.222;2023-04-24T11:27:44;101044.00;;;22.70
44429;BMP180;30134;47.866;-4.222;2023-04-24T11:30:18;101039.00;;;22.70
44429;BMP180;30134;47.866;-4.222;2023-04-24T11:32:50;101035.00;;;22.70
44429;BMP180;30134;47.866;-4.222;2023-04-24T11:35:19;101043.00;;;22.70
44429;BMP180;30134;47.866;-4.222;2023-04-24T11:37:52;101043.00;;;22.80
44429;BMP180;30134;47.866;-4.222;2023-04-24T11:40:20;101042.00;;;22.80
44429;BMP180;30134;47.866;-4.222;2023-04-24T11:42:50;101030.00;;;22.70
44429;BMP180;30134;47.866;-4.222;2023-04-24T11:45:25;101046.00;;;22.80
44429;BMP180;30134;47.866;-4.222;2023-04-24T11:47:51;101039.00;;;22.80
44429;BMP180;30134;47.866;-4.222;2023-04-24T11:50:21;101043.00;;;22.80
44429;BMP180;30134;47.866;-4.222;2023-04-24T11:52:49;101042.00;;;22.80
44429;BMP180;30134;47.866;-4.222;2023-04-24T11:57:46;101041.00;;;22.80
44429;BMP180;30134;47.866;-4.222;2023-04-24T12:00:30;101024.00;;;22.80
44429;BMP180;30134;47.866;-4.222;2023-04-24T12:03:09;101044.00;;;22.80
44429;BMP180;30134;47.866;-4.222;2023-04-24T12:05:39;101032.00;;;22.90
44429;BMP180;30134;47.866;-4.222;2023-04-24T12:08:05;101043.00;;;22.80
44429;BMP180;30134;47.866;-4.222;2023-04-24T12:10:33;101041.00;;;22.80
44429;BMP180;30134;47.866;-4.222;2023-04-24T12:13:00;101039.00;;;22.90
44429;BMP180;30134;47.866;-4.222;2023-04-24T12:15:27;101049.00;;;22.90
44429;BMP180;30134;47.866;-4.222;2023-04-24T12:17:55;101047.00;;;22.90
44429;BMP180;30134;47.866;-4.222;2023-04-24T12:20:30;101043.00;;;22.90
44429;BMP180;30134;47.866;-4.222;2023-04-24T12:22:59;101040.00;;;22.90
44429;BMP180;30134;47.866;-4.222;2023-04-24T12:25:28;101037.00;;;22.90
44429;BMP180;30134;47.866;-4.222;2023-04-24T12:30:56;101035.00;;;22.90
44429;BMP180;30134;47.866;-4.222;2023-04-24T12:33:23;101034.00;;;22.90
44429;BMP180;30134;47.866;-4.222;2023-04-24T12:35:53;101029.00;;;22.90
44429;BMP180;30134;47.866;-4.222;2023-04-24T12:38:24;101036.00;;;22.90
44429;BMP180;30134;47.866;-4.222;2023-04-24T12:41:06;101027.00;;;22.90
44429;BMP180;30134;47.866;-4.222;2023-04-24T12:43:32;101030.00;;;22.90
44429;BMP180;30134;47.866;-4.222;2023-04-24T12:45:59;101029.00;;;22.90
44429;BMP180;30134;47.866;-4.222;2023-04-24T12:48:28;101042.00;;;23.00
44429;BMP180;30134;47.866;-4.222;2023-04-24T12:50:56;101029.00;;;23.00
44429;BMP180;30134;47.866;-4.222;2023-04-24T12:53:23;101040.00;;;22.90
44429;BMP180;30134;47.866;-4.222;2023-04-24T12:55:49;101036.00;;;22.60
44429;BMP180;30134;47.866;-4.222;2023-04-24T12:58:22;101040.00;;;22.80
44429;BMP180;30134;47.866;-4.222;2023-04-24T13:00:48;101037.00;;;23.00
44429;BMP180;30134;47.866;-4.222;2023-04-24T13:03:15;101045.00;;;23.10
44429;BMP180;30134;47.866;-4.222;2023-04-24T13:05:43;101031.00;;;23.10
44429;BMP180;30134;47.866;-4.222;2023-04-24T13:08:09;101033.00;;;23.20
44429;BMP180;30134;47.866;-4.222;2023-04-24T13:10:36;101031.00;;;23.20
44429;BMP180;30134;47.866;-4.222;2023-04-24T13:13:03;101039.00;;;23.30
44429;BMP180;30134;47.866;-4.222;2023-04-24T13:15:29;101035.00;;;23.30
44429;BMP180;30134;47.866;-4.222;2023-04-24T13:17:55;101029.00;;;23.30
44429;BMP180;30134;47.866;-4.222;2023-04-24T13:20:21;101030.00;;;23.30
44429;BMP180;30134;47.866;-4.222;2023-04-24T13:22:47;101032.00;;;23.30
44429;BMP180;30134;47.866;-4.222;2023-04-24T13:25:13;101030.00;;;23.40
44429;BMP180;30134;47.866;-4.222;2023-04-24T13:27:48;101031.00;;;23.30
44429;BMP180;30134;47.866;-4.222;2023-04-24T13:30:14;101030.00;;;23.40
44429;BMP180;30134;47.866;-4.222;2023-04-24T13:32:41;101039.00;;;23.30
44429;BMP180;30134;47.866;-4.222;2023-04-24T13:35:07;101029.00;;;23.40
44429;BMP180;30134;47.866;-4.222;2023-04-24T13:37:33;101020.00;;;23.40
44429;BMP180;30134;47.866;-4.222;2023-04-24T13:39:59;101020.00;;;23.50
44429;BMP180;30134;47.866;-4.222;2023-04-24T13:42:25;101013.00;;;23.60
44429;BMP180;30134;47.866;-4.222;2023-04-24T13:44:52;101018.00;;;23.50
44429;BMP180;30134;47.866;-4.222;2023-04-24T13:47:18;101023.00;;;23.60
44429;BMP180;30134;47.866;-4.222;2023-04-24T13:49:44;101024.00;;;23.60
44429;BMP180;30134;47.866;-4.222;2023-04-24T13:52:10;101030.00;;;23.60
44429;BMP180;30134;47.866;-4.222;2023-04-24T13:54:36;101035.00;;;23.60
44429;BMP180;30134;47.866;-4.222;2023-04-24T13:57:03;101028.00;;;23.50
44429;BMP180;30134;47.866;-4.222;2023-04-24T14:00:11;101019.00;;;23.60